sensor_id;sensor_type;location;lat;lon;timestamp;P1;durP1;ratioP1;P2;durP2;ratioP2
61009;SDS011;46897;55.340;86.082;2022-07-29T06:27:41;7.45;;;3.78;;
61009;SDS011;46897;55.340;86.082;2022-07-29T06:30:12;6.05;;;3.63;;
61009;SDS011;46897;55.340;86.082;2022-07-29T06:32:42;4.47;;;3.45;;
61009;SDS011;46897;55.340;86.082;2022-07-29T06:35:11;6.60;;;3.50;;
61009;SDS011;46897;55.340;86.082;2022-07-29T06:38:04;4.70;;;3.67;;
61009;SDS011;46897;55.340;86.082;2022-07-29T06:40:53;5.18;;;3.70;;
61009;SDS011;46897;55.340;86.082;2022-07-29T06:43:34;5.07;;;3.80;;
61009;SDS011;46897;55.340;86.082;2022-07-29T06:46:18;6.63;;;3.53;;
61009;SDS011;46897;55.340;86.082;2022-07-29T06:48:49;7.97;;;3.97;;
61009;SDS011;46897;55.340;86.082;2022-07-29T06:51:21;5.78;;;3.63;;
61009;SDS011;46897;55.340;86.082;2022-07-29T06:53:51;8.88;;;4.63;;
61009;SDS011;46897;55.340;86.082;2022-07-29T06:56:25;6.80;;;4.07;;
61009;SDS011;46897;55.340;86.082;2022-07-29T06:58:56;6.68;;;4.13;;
61009;SDS011;46897;55.340;86.082;2022-07-29T07:01:27;5.55;;;4.05;;
61009;SDS011;46897;55.340;86.082;2022-07-29T07:03:56;5.20;;;3.60;;
61009;SDS011;46897;55.340;86.082;2022-07-29T07:06:25;16.40;;;4.97;;
61009;SDS011;46897;55.340;86.082;2022-07-29T07:08:57;5.90;;;4.10;;
61009;SDS011;46897;55.340;86.082;2022-07-29T07:11:27;6.25;;;4.43;;
61009;SDS011;46897;55.340;86.082;2022-07-29T07:13:59;7.32;;;4.13;;
61009;SDS011;46897;55.340;86.082;2022-07-29T07:16:29;7.35;;;3.97;;
61009;SDS011;46897;55.340;86.082;2022-07-29T07:18:59;8.82;;;4.20;;
61009;SDS011;46897;55.340;86.082;2022-07-29T07:21:29;4.53;;;3.45;;
61009;SDS011;46897;55.340;86.082;2022-07-29T07:23:58;7.38;;;4.30;;
61009;SDS011;46897;55.340;86.082;2022-07-29T07:26:28;8.95;;;4.20;;
61009;SDS011;46897;55.340;86.082;2022-07-29T07:28:58;8.52;;;4.97;;
61009;SDS011;46897;55.340;86.082;2022-07-29T07:31:28;7.80;;;4.72;;
61009;SDS011;46897;55.340;86.082;2022-07-29T07:33:57;8.43;;;3.95;;
61009;SDS011;46897;55.340;86.082;2022-07-29T07:36:26;6.35;;;4.22;;
61009;SDS011;46897;55.340;86.082;2022-07-29T07:38:56;6.10;;;4.00;;
61009;SDS011;46897;55.340;86.082;2022-07-29T07:41:26;6.13;;;4.40;;
61009;SDS011;46897;55.340;86.082;2022-07-29T07:44:01;8.43;;;4.60;;
61009;SDS011;46897;55.340;86.082;2022-07-29T07:46:31;6.78;;;3.90;;
61009;SDS011;46897;55.340;86.082;2022-07-29T07:49:00;7.40;;;4.18;;
61009;SDS011;46897;55.340;86.082;2022-07-29T07:51:29;6.25;;;3.83;;
61009;SDS011;46897;55.340;86.082;2022-07-29T07:53:59;5.55;;;4.10;;
61009;SDS011;46897;55.340;86.082;2022-07-29T07:56:30;5.45;;;4.00;;
61009;SDS011;46897;55.340;86.082;2022-07-29T07:59:02;6.72;;;4.38;;
61009;SDS011;46897;55.340;86.082;2022-07-29T08:01:31;5.80;;;4.20;;
61009;SDS011;46897;55.340;86.082;2022-07-29T08:04:21;6.55;;;4.43;;
61009;SDS011;46897;55.340;86.082;2022-07-29T08:06:54;6.20;;;4.30;;
61009;SDS011;46897;55.340;86.082;2022-07-29T08:09:25;8.38;;;4.25;;
61009;SDS011;46897;55.340;86.082;2022-07-29T08:11:58;6.43;;;4.20;;
61009;SDS011;46897;55.340;86.082;2022-07-29T08:14:30;4.78;;;3.97;;
61009;SDS011;46897;55.340;86.082;2022-07-29T08:17:01;6.43;;;3.67;;
61009;SDS011;46897;55.340;86.082;2022-07-29T08:19:30;5.47;;;4.05;;
61009;SDS011;46897;55.340;86.082;2022-07-29T08:21:59;6.05;;;4.22;;
61009;SDS011;46897;55.340;86.082;2022-07-29T08:24:29;6.93;;;3.95;;
61009;SDS011;46897;55.340;86.082;2022-07-29T08:27:21;7.82;;;4.22;;
61009;SDS011;46897;55.340;86.082;2022-07-29T08:30:13;5.80;;;3.85;;
61009;SDS011;46897;55.340;86.082;2022-07-29T08:32:44;5.60;;;4.10;;
61009;SDS011;46897;55.340;86.082;2022-07-29T08:35:21;7.97;;;5.10;;
61009;SDS011;46897;55.340;86.082;2022-07-29T08:37:52;5.10;;;4.10;;
61009;SDS011;46897;55.340;86.082;2022-07-29T08:40:21;6.97;;;3.90;;
61009;SDS011;46897;55.340;86.082;2022-07-29T08:42:58;8.18;;;5.07;;
61009;SDS011;46897;55.340;86.082;2022-07-29T08:45:29;6.78;;;3.70;;
61009;SDS011;46897;55.340;86.082;2022-07-29T08:48:03;6.03;;;4.28;;
61009;SDS011;46897;55.340;86.082;2022-07-29T08:50:35;8.00;;;4.20;;
61009;SDS011;46897;55.340;86.082;2022-07-29T08:53:06;7.47;;;3.83;;
61009;SDS011;46897;55.340;86.082;2022-07-29T08:55:39;5.97;;;3.47;;
61009;SDS011;46897;55.340;86.082;2022-07-29T08:58:11;6.05;;;3.92;;
61009;SDS011;46897;55.340;86.082;2022-07-29T09:00:44;6.03;;;3.95;;
61009;SDS011;46897;55.340;86.082;2022-07-29T09:03:15;7.75;;;5.88;;
61009;SDS011;46897;55.340;86.082;2022-07-29T09:05:46;5.38;;;4.45;;
61009;SDS011;46897;55.340;86.082;2022-07-29T09:08:18;5.47;;;3.83;;
61009;SDS011;46897;55.340;86.082;2022-07-29T09:10:48;7.78;;;4.05;;
61009;SDS011;46897;55.340;86.082;2022-07-29T09:13:18;7.90;;;4.82;;
61009;SDS011;46897;55.340;86.082;2022-07-29T09:15:49;7.72;;;3.42;;
61009;SDS011;46897;55.340;86.082;2022-07-29T09:18:33;5.80;;;3.30;;
61009;SDS011;46897;55.340;86.082;2022-07-29T09:21:03;6.75;;;4.78;;
61009;SDS011;46897;55.340;86.082;2022-07-29T09:23:59;5.35;;;3.67;;
61009;SDS011;46897;55.340;86.082;2022-07-29T09:26:30;5.50;;;3.45;;
61009;SDS011;46897;55.340;86.082;2022-07-29T09:29:07;3.85;;;3.25;;
61009;SDS011;46897;55.340;86.082;2022-07-29T09:31:41;4.30;;;3.28;;
61009;SDS011;46897;55.340;86.082;2022-07-29T09:34:13;3.85;;;3.28;;
61009;SDS011;46897;55.340;86.082;2022-07-29T09:36:44;4.53;;;3.65;;
61009;SDS011;46897;55.340;86.082;2022-07-29T09:39:15;4.95;;;3.30;;
61009;SDS011;46897;55.340;86.082;2022-07-29T09:41:55;4.43;;;3.63;;
61009;SDS011;46897;55.340;86.082;2022-07-29T09:44:26;5.68;;;3.30;;
61009;SDS011;46897;55.340;86.082;2022-07-29T09:47:11;5.85;;;3.80;;
61009;SDS011;46897;55.340;86.082;2022-07-29T09:49:51;4.25;;;3.47;;
61009;SDS011;46897;55.340;86.082;2022-07-29T09:52:22;3.53;;;3.08;;
61009;SDS011;46897;55.340;86.082;2022-07-29T09:54:52;4.22;;;3.78;;
61009;SDS011;46897;55.340;86.082;2022-07-29T09:57:32;4.13;;;3.72;;
61009;SDS011;46897;55.340;86.082;2022-07-29T10:00:05;5.30;;;3.63;;
61009;SDS011;46897;55.340;86.082;2022-07-29T10:02:46;4.55;;;3.72;;
61009;SDS011;46897;55.340;86.082;2022-07-29T10:05:20;5.18;;;3.80;;
61009;SDS011;46897;55.340;86.082;2022-07-29T10:08:02;6.20;;;4.00;;
61009;SDS011;46897;55.340;86.082;2022-07-29T10:10:33;6.03;;;4.05;;
61009;SDS011;46897;55.340;86.082;2022-07-29T10:13:04;7.05;;;5.30;;
61009;SDS011;46897;55.340;86.082;2022-07-29T10:15:42;5.97;;;3.95;;
61009;SDS011;46897;55.340;86.082;2022-07-29T10:18:14;5.93;;;3.55;;
61009;SDS011;46897;55.340;86.082;2022-07-29T10:20:46;4.65;;;3.65;;
61009;SDS011;46897;55.340;86.082;2022-07-29T10:23:17;4.55;;;3.85;;
61009;SDS011;46897;55.340;86.082;2022-07-29T10:25:48;4.10;;;3.38;;
61009;SDS011;46897;55.340;86.082;2022-07-29T10:28:17;5.45;;;3.60;;
61009;SDS011;46897;55.340;86.082;2022-07-29T10:33:33;4.57;;;3.60;;
61009;SDS011;46897;55.340;86.082;2022-07-29T10:36:20;4.78;;;3.78;;
61009;SDS011;46897;55.340;86.082;2022-07-29T10:39:16;6.22;;;4.00;;
61009;SDS011;46897;55.340;86.082;2022-07-29T10:42:10;5.88;;;4.20;;
61009;SDS011;46897;55.340;86.082;2022-07-29T10:44:59;5.15;;;3.83;;
61009;SDS011;46897;55.340;86.082;2022-07-29T10:47:31;6.65;;;3.72;;
61009;SDS011;46897;55.340;86.082;2022-07-29T10:50:14;6.75;;;3.65;;
61009;SDS011;46897;55.340;86.082;2022-07-29T10:52:54;5.63;;;3.85;;
61009;SDS011;46897;55.340;86.082;2022-07-29T10:55:34;7.13;;;3.95;;
61009;SDS011;46897;55.340;86.082;2022-07-29T10:58:16;5.90;;;4.43;;
61009;SDS011;46897;55.340;86.082;2022-07-29T11:01:00;6.97;;;3.55;;
61009;SDS011;46897;55.340;86.082;2022-07-29T11:04:15;5.10;;;3.95;;
61009;SDS011;46897;55.340;86.082;2022-07-29T11:07:14;6.28;;;4.28;;
61009;SDS011;46897;55.340;86.082;2022-07-29T11:09:54;5.15;;;3.45;;
61009;SDS011;46897;55.340;86.082;2022-07-29T11:16:18;5.20;;;3.72;;
61009;SDS011;46897;55.340;86.082;2022-07-29T11:21:56;6.22;;;4.30;;
61009;SDS011;46897;55.340;86.082;2022-07-29T11:24:31;6.93;;;3.97;;
61009;SDS011;46897;55.340;86.082;2022-07-29T11:27:19;6.20;;;4.45;;
61009;SDS011;46897;55.340;86.082;2022-07-29T11:29:57;6.15;;;3.80;;
61009;SDS011;46897;55.340;86.082;2022-07-29T11:32:35;7.28;;;4.50;;
61009;SDS011;46897;55.340;86.082;2022-07-29T11:35:13;5.45;;;4.25;;
61009;SDS011;46897;55.340;86.082;2022-07-29T11:41:22;6.30;;;3.78;;
61009;SDS011;46897;55.340;86.082;2022-07-29T11:43:58;5.18;;;3.50;;
61009;SDS011;46897;55.340;86.082;2022-07-29T11:46:44;5.00;;;3.90;;
61009;SDS011;46897;55.340;86.082;2022-07-29T11:49:18;4.38;;;3.67;;
61009;SDS011;46897;55.340;86.082;2022-07-29T11:51:59;6.25;;;3.95;;
61009;SDS011;46897;55.340;86.082;2022-07-29T11:54:33;5.45;;;3.80;;
61009;SDS011;46897;55.340;86.082;2022-07-29T11:57:25;5.88;;;3.60;;
61009;SDS011;46897;55.340;86.082;2022-07-29T12:00:04;6.00;;;4.03;;
61009;SDS011;46897;55.340;86.082;2022-07-29T12:02:44;3.85;;;3.10;;
61009;SDS011;46897;55.340;86.082;2022-07-29T12:08:18;5.65;;;3.47;;
61009;SDS011;46897;55.340;86.082;2022-07-29T12:10:49;5.22;;;3.80;;
61009;SDS011;46897;55.340;86.082;2022-07-29T12:13:25;6.68;;;3.83;;
61009;SDS011;46897;55.340;86.082;2022-07-29T12:16:15;4.85;;;3.67;;
61009;SDS011;46897;55.340;86.082;2022-07-29T12:18:55;4.72;;;3.67;;
61009;SDS011;46897;55.340;86.082;2022-07-29T12:21:33;6.30;;;3.70;;
61009;SDS011;46897;55.340;86.082;2022-07-29T12:24:22;4.25;;;3.85;;
61009;SDS011;46897;55.340;86.082;2022-07-29T12:26:54;5.65;;;3.70;;
61009;SDS011;46897;55.340;86.082;2022-07-29T12:29:32;6.03;;;3.80;;
61009;SDS011;46897;55.340;86.082;2022-07-29T12:32:04;6.60;;;3.70;;
61009;SDS011;46897;55.340;86.082;2022-07-29T12:34:40;6.50;;;3.83;;
61009;SDS011;46897;55.340;86.082;2022-07-29T12:37:10;4.43;;;3.80;;
61009;SDS011;46897;55.340;86.082;2022-07-29T12:40:08;6.15;;;3.92;;
61009;SDS011;46897;55.340;86.082;2022-07-29T12:42:39;5.45;;;3.85;;
61009;SDS011;46897;55.340;86.082;2022-07-29T12:45:15;4.32;;;3.58;;
61009;SDS011;46897;55.340;86.082;2022-07-29T12:47:51;6.53;;;3.63;;
61009;SDS011;46897;55.340;86.082;2022-07-29T12:50:20;6.03;;;3.90;;
61009;SDS011;46897;55.340;86.082;2022-07-29T12:52:52;7.00;;;4.20;;
61009;SDS011;46897;55.340;86.082;2022-07-29T12:58:25;5.38;;;3.78;;
61009;SDS011;46897;55.340;86.082;2022-07-29T13:01:04;7.75;;;4.05;;
61009;SDS011;46897;55.340;86.082;2022-07-29T13:03:43;6.03;;;3.97;;
61009;SDS011;46897;55.340;86.082;2022-07-29T13:06:36;5.75;;;4.00;;
61009;SDS011;46897;55.340;86.082;2022-07-29T13:09:08;6.50;;;4.18;;
61009;SDS011;46897;55.340;86.082;2022-07-29T13:11:40;6.90;;;4.30;;
61009;SDS011;46897;55.340;86.082;2022-07-29T13:14:30;5.50;;;3.92;;
61009;SDS011;46897;55.340;86.082;2022-07-29T13:17:03;6.15;;;3.97;;
61009;SDS011;46897;55.340;86.082;2022-07-29T13:19:35;5.70;;;4.28;;
61009;SDS011;46897;55.340;86.082;2022-07-29T13:22:07;6.22;;;4.10;;
61009;SDS011;46897;55.340;86.082;2022-07-29T13:24:49;7.47;;;5.10;;
61009;SDS011;46897;55.340;86.082;2022-07-29T13:27:19;7.72;;;4.38;;
61009;SDS011;46897;55.340;86.082;2022-07-29T13:29:50;9.10;;;4.10;;
61009;SDS011;46897;55.340;86.082;2022-07-29T13:32:22;6.63;;;4.32;;
61009;SDS011;46897;55.340;86.082;2022-07-29T13:34:54;8.37;;;4.70;;
61009;SDS011;46897;55.340;86.082;2022-07-29T13:37:24;9.60;;;4.50;;
61009;SDS011;46897;55.340;86.082;2022-07-29T13:39:56;8.07;;;4.40;;
61009;SDS011;46897;55.340;86.082;2022-07-29T13:42:28;8.20;;;4.50;;
61009;SDS011;46897;55.340;86.082;2022-07-29T13:44:57;6.60;;;4.82;;
61009;SDS011;46897;55.340;86.082;2022-07-29T13:47:28;8.68;;;5.07;;
61009;SDS011;46897;55.340;86.082;2022-07-29T13:49:59;9.05;;;6.57;;
61009;SDS011;46897;55.340;86.082;2022-07-29T13:52:30;8.20;;;5.03;;
61009;SDS011;46897;55.340;86.082;2022-07-29T13:55:00;7.13;;;4.78;;
61009;SDS011;46897;55.340;86.082;2022-07-29T13:57:30;8.90;;;4.90;;
61009;SDS011;46897;55.340;86.082;2022-07-29T13:59:59;7.78;;;4.95;;
61009;SDS011;46897;55.340;86.082;2022-07-29T14:02:30;7.20;;;4.82;;
61009;SDS011;46897;55.340;86.082;2022-07-29T14:05:00;10.00;;;5.03;;
61009;SDS011;46897;55.340;86.082;2022-07-29T14:07:34;10.50;;;5.68;;
61009;SDS011;46897;55.340;86.082;2022-07-29T14:10:04;14.88;;;7.82;;
61009;SDS011;46897;55.340;86.082;2022-07-29T14:12:33;14.77;;;7.82;;
61009;SDS011;46897;55.340;86.082;2022-07-29T14:15:03;10.50;;;5.63;;
61009;SDS011;46897;55.340;86.082;2022-07-29T14:17:35;12.68;;;6.05;;
61009;SDS011;46897;55.340;86.082;2022-07-29T14:20:04;12.38;;;5.57;;
61009;SDS011;46897;55.340;86.082;2022-07-29T14:22:34;13.63;;;6.53;;
61009;SDS011;46897;55.340;86.082;2022-07-29T14:25:09;11.70;;;6.25;;
61009;SDS011;46897;55.340;86.082;2022-07-29T14:27:41;8.27;;;5.75;;
61009;SDS011;46897;55.340;86.082;2022-07-29T14:30:11;11.35;;;6.68;;
61009;SDS011;46897;55.340;86.082;2022-07-29T14:32:42;9.63;;;5.82;;
61009;SDS011;46897;55.340;86.082;2022-07-29T14:35:11;10.10;;;6.35;;
61009;SDS011;46897;55.340;86.082;2022-07-29T14:37:41;8.23;;;5.07;;
61009;SDS011;46897;55.340;86.082;2022-07-29T14:40:10;11.48;;;6.15;;
61009;SDS011;46897;55.340;86.082;2022-07-29T14:42:40;10.07;;;5.97;;
61009;SDS011;46897;55.340;86.082;2022-07-29T14:45:09;9.27;;;5.80;;
61009;SDS011;46897;55.340;86.082;2022-07-29T14:47:39;7.65;;;5.65;;
61009;SDS011;46897;55.340;86.082;2022-07-29T14:50:24;8.65;;;5.90;;
61009;SDS011;46897;55.340;86.082;2022-07-29T14:52:57;10.35;;;6.28;;
61009;SDS011;46897;55.340;86.082;2022-07-29T14:55:27;15.23;;;6.22;;
61009;SDS011;46897;55.340;86.082;2022-07-29T14:57:56;12.23;;;6.57;;
61009;SDS011;46897;55.340;86.082;2022-07-29T15:00:36;13.73;;;7.25;;
61009;SDS011;46897;55.340;86.082;2022-07-29T15:03:05;13.63;;;6.88;;
61009;SDS011;46897;55.340;86.082;2022-07-29T15:05:38;21.52;;;6.80;;
61009;SDS011;46897;55.340;86.082;2022-07-29T15:08:07;11.15;;;6.57;;
61009;SDS011;46897;55.340;86.082;2022-07-29T15:10:37;13.40;;;7.13;;
61009;SDS011;46897;55.340;86.082;2022-07-29T15:13:06;12.05;;;6.95;;
61009;SDS011;46897;55.340;86.082;2022-07-29T15:15:36;17.20;;;7.03;;
61009;SDS011;46897;55.340;86.082;2022-07-29T15:18:07;14.18;;;7.32;;
61009;SDS011;46897;55.340;86.082;2022-07-29T15:20:38;20.05;;;8.05;;
61009;SDS011;46897;55.340;86.082;2022-07-29T15:23:08;16.10;;;9.32;;
61009;SDS011;46897;55.340;86.082;2022-07-29T15:25:39;16.58;;;7.97;;
61009;SDS011;46897;55.340;86.082;2022-07-29T15:28:08;30.58;;;15.63;;
61009;SDS011;46897;55.340;86.082;2022-07-29T15:30:38;20.20;;;11.40;;
61009;SDS011;46897;55.340;86.082;2022-07-29T15:33:08;31.73;;;15.75;;
61009;SDS011;46897;55.340;86.082;2022-07-29T15:35:39;40.20;;;18.15;;
61009;SDS011;46897;55.340;86.082;2022-07-29T15:38:08;34.20;;;18.85;;
61009;SDS011;46897;55.340;86.082;2022-07-29T15:40:38;33.05;;;18.45;;
61009;SDS011;46897;55.340;86.082;2022-07-29T15:43:29;31.52;;;18.27;;
61009;SDS011;46897;55.340;86.082;2022-07-29T15:45:58;39.92;;;20.40;;
61009;SDS011;46897;55.340;86.082;2022-07-29T15:48:44;38.80;;;20.25;;
61009;SDS011;46897;55.340;86.082;2022-07-29T15:51:15;43.40;;;20.70;;
61009;SDS011;46897;55.340;86.082;2022-07-29T15:53:45;42.80;;;19.52;;
61009;SDS011;46897;55.340;86.082;2022-07-29T15:56:19;44.65;;;22.48;;
61009;SDS011;46897;55.340;86.082;2022-07-29T15:58:48;48.22;;;21.25;;
61009;SDS011;46897;55.340;86.082;2022-07-29T16:01:19;40.30;;;22.15;;
61009;SDS011;46897;55.340;86.082;2022-07-29T16:03:49;40.20;;;20.60;;
61009;SDS011;46897;55.340;86.082;2022-07-29T16:06:20;38.35;;;20.35;;
61009;SDS011;46897;55.340;86.082;2022-07-29T16:08:49;49.05;;;24.10;;
61009;SDS011;46897;55.340;86.082;2022-07-29T16:11:21;26.60;;;13.40;;
61009;SDS011;46897;55.340;86.082;2022-07-29T16:13:50;35.60;;;20.75;;
61009;SDS011;46897;55.340;86.082;2022-07-29T16:16:21;37.22;;;20.42;;
61009;SDS011;46897;55.340;86.082;2022-07-29T16:18:52;55.88;;;26.25;;
61009;SDS011;46897;55.340;86.082;2022-07-29T16:21:23;47.95;;;23.73;;
61009;SDS011;46897;55.340;86.082;2022-07-29T16:23:52;40.00;;;21.80;;
61009;SDS011;46897;55.340;86.082;2022-07-29T16:26:21;35.90;;;20.27;;
61009;SDS011;46897;55.340;86.082;2022-07-29T16:28:50;38.50;;;18.70;;
61009;SDS011;46897;55.340;86.082;2022-07-29T16:31:20;43.55;;;22.60;;
61009;SDS011;46897;55.340;86.082;2022-07-29T16:33:50;36.42;;;16.80;;
61009;SDS011;46897;55.340;86.082;2022-07-29T16:36:23;35.20;;;19.13;;
61009;SDS011;46897;55.340;86.082;2022-07-29T16:38:52;39.75;;;19.08;;
61009;SDS011;46897;55.340;86.082;2022-07-29T16:41:21;30.83;;;15.93;;
61009;SDS011;46897;55.340;86.082;2022-07-29T16:43:50;29.27;;;11.27;;
61009;SDS011;46897;55.340;86.082;2022-07-29T16:46:21;20.52;;;9.98;;
61009;SDS011;46897;55.340;86.082;2022-07-29T16:48:51;22.60;;;9.18;;
61009;SDS011;46897;55.340;86.082;2022-07-29T16:51:23;17.80;;;8.00;;
61009;SDS011;46897;55.340;86.082;2022-07-29T16:53:52;11.82;;;7.55;;
61009;SDS011;46897;55.340;86.082;2022-07-29T16:56:21;14.68;;;6.70;;
61009;SDS011;46897;55.340;86.082;2022-07-29T16:58:50;12.23;;;6.60;;
61009;SDS011;46897;55.340;86.082;2022-07-29T17:01:20;12.48;;;6.68;;
61009;SDS011;46897;55.340;86.082;2022-07-29T17:03:49;10.15;;;6.10;;
61009;SDS011;46897;55.340;86.082;2022-07-29T17:06:35;9.48;;;6.20;;
61009;SDS011;46897;55.340;86.082;2022-07-29T17:09:06;12.05;;;5.95;;
61009;SDS011;46897;55.340;86.082;2022-07-29T17:11:36;10.70;;;6.53;;
61009;SDS011;46897;55.340;86.082;2022-07-29T17:14:20;12.10;;;6.63;;
61009;SDS011;46897;55.340;86.082;2022-07-29T17:16:51;15.05;;;6.68;;
61009;SDS011;46897;55.340;86.082;2022-07-29T17:19:28;13.05;;;7.30;;
61009;SDS011;46897;55.340;86.082;2022-07-29T17:22:00;13.52;;;7.63;;
61009;SDS011;46897;55.340;86.082;2022-07-29T17:24:38;14.30;;;7.43;;
61009;SDS011;46897;55.340;86.082;2022-07-29T17:27:08;16.88;;;8.70;;
61009;SDS011;46897;55.340;86.082;2022-07-29T17:29:38;28.25;;;12.55;;
61009;SDS011;46897;55.340;86.082;2022-07-29T17:32:08;25.52;;;13.65;;
61009;SDS011;46897;55.340;86.082;2022-07-29T17:34:38;24.05;;;11.57;;
61009;SDS011;46897;55.340;86.082;2022-07-29T17:37:11;24.52;;;11.10;;
61009;SDS011;46897;55.340;86.082;2022-07-29T17:39:41;23.00;;;10.82;;
61009;SDS011;46897;55.340;86.082;2022-07-29T17:42:11;16.05;;;7.72;;
61009;SDS011;46897;55.340;86.082;2022-07-29T17:44:42;21.90;;;11.27;;
61009;SDS011;46897;55.340;86.082;2022-07-29T17:47:11;17.85;;;7.05;;
61009;SDS011;46897;55.340;86.082;2022-07-29T17:49:42;11.43;;;7.50;;
61009;SDS011;46897;55.340;86.082;2022-07-29T17:52:13;15.02;;;7.22;;
61009;SDS011;46897;55.340;86.082;2022-07-29T17:54:44;16.33;;;7.45;;
61009;SDS011;46897;55.340;86.082;2022-07-29T17:57:15;16.10;;;7.35;;
61009;SDS011;46897;55.340;86.082;2022-07-29T17:59:44;19.90;;;7.93;;
61009;SDS011;46897;55.340;86.082;2022-07-29T18:02:13;12.90;;;6.35;;
61009;SDS011;46897;55.340;86.082;2022-07-29T18:04:43;10.90;;;6.47;;
61009;SDS011;46897;55.340;86.082;2022-07-29T18:07:17;9.63;;;6.35;;
61009;SDS011;46897;55.340;86.082;2022-07-29T18:09:46;13.05;;;6.97;;
61009;SDS011;46897;55.340;86.082;2022-07-29T18:12:16;12.63;;;6.45;;
61009;SDS011;46897;55.340;86.082;2022-07-29T18:14:45;10.18;;;6.65;;
61009;SDS011;46897;55.340;86.082;2022-07-29T18:17:14;13.20;;;6.88;;
61009;SDS011;46897;55.340;86.082;2022-07-29T18:19:44;13.20;;;7.20;;
61009;SDS011;46897;55.340;86.082;2022-07-29T18:22:14;13.25;;;7.10;;
61009;SDS011;46897;55.340;86.082;2022-07-29T18:24:44;13.68;;;6.75;;
61009;SDS011;46897;55.340;86.082;2022-07-29T18:27:14;13.02;;;7.57;;
61009;SDS011;46897;55.340;86.082;2022-07-29T18:29:43;12.20;;;7.70;;
61009;SDS011;46897;55.340;86.082;2022-07-29T18:32:16;11.70;;;6.82;;
61009;SDS011;46897;55.340;86.082;2022-07-29T18:34:55;22.90;;;12.82;;
61009;SDS011;46897;55.340;86.082;2022-07-29T18:37:24;18.40;;;9.77;;
61009;SDS011;46897;55.340;86.082;2022-07-29T18:40:14;22.00;;;11.13;;
61009;SDS011;46897;55.340;86.082;2022-07-29T18:42:46;32.78;;;13.85;;
61009;SDS011;46897;55.340;86.082;2022-07-29T18:45:17;36.28;;;14.90;;
61009;SDS011;46897;55.340;86.082;2022-07-29T18:47:46;33.13;;;15.52;;
61009;SDS011;46897;55.340;86.082;2022-07-29T18:50:17;32.65;;;15.90;;
61009;SDS011;46897;55.340;86.082;2022-07-29T18:52:51;32.20;;;15.60;;
61009;SDS011;46897;55.340;86.082;2022-07-29T18:55:22;30.63;;;15.98;;
61009;SDS011;46897;55.340;86.082;2022-07-29T18:57:52;31.67;;;14.48;;
61009;SDS011;46897;55.340;86.082;2022-07-29T19:00:24;37.05;;;13.75;;
61009;SDS011;46897;55.340;86.082;2022-07-29T19:02:54;31.02;;;14.45;;
61009;SDS011;46897;55.340;86.082;2022-07-29T19:05:24;32.85;;;15.05;;
61009;SDS011;46897;55.340;86.082;2022-07-29T19:07:53;34.40;;;14.68;;
61009;SDS011;46897;55.340;86.082;2022-07-29T19:10:24;29.27;;;13.50;;
61009;SDS011;46897;55.340;86.082;2022-07-29T19:12:53;36.75;;;14.68;;
61009;SDS011;46897;55.340;86.082;2022-07-29T19:15:23;26.27;;;13.65;;
61009;SDS011;46897;55.340;86.082;2022-07-29T19:17:53;29.23;;;14.25;;
61009;SDS011;46897;55.340;86.082;2022-07-29T19:20:26;31.15;;;11.80;;
61009;SDS011;46897;55.340;86.082;2022-07-29T19:22:56;26.73;;;13.93;;
61009;SDS011;46897;55.340;86.082;2022-07-29T19:25:27;26.67;;;13.63;;
61009;SDS011;46897;55.340;86.082;2022-07-29T19:28:01;26.35;;;13.05;;
61009;SDS011;46897;55.340;86.082;2022-07-29T19:30:30;27.05;;;11.63;;
61009;SDS011;46897;55.340;86.082;2022-07-29T19:33:01;29.27;;;12.35;;
61009;SDS011;46897;55.340;86.082;2022-07-29T19:35:30;26.05;;;10.73;;
61009;SDS011;46897;55.340;86.082;2022-07-29T19:37:59;22.58;;;9.98;;
61009;SDS011;46897;55.340;86.082;2022-07-29T19:40:30;28.67;;;11.57;;
61009;SDS011;46897;55.340;86.082;2022-07-29T19:43:00;21.10;;;10.88;;
61009;SDS011;46897;55.340;86.082;2022-07-29T19:45:50;17.67;;;9.75;;
61009;SDS011;46897;55.340;86.082;2022-07-29T19:48:21;20.05;;;9.68;;
61009;SDS011;46897;55.340;86.082;2022-07-29T19:50:50;23.98;;;10.48;;
61009;SDS011;46897;55.340;86.082;2022-07-29T19:53:20;25.10;;;11.23;;
61009;SDS011;46897;55.340;86.082;2022-07-29T19:55:51;23.38;;;11.63;;
61009;SDS011;46897;55.340;86.082;2022-07-29T19:58:21;25.50;;;11.52;;
61009;SDS011;46897;55.340;86.082;2022-07-29T20:00:52;25.20;;;11.02;;
61009;SDS011;46897;55.340;86.082;2022-07-29T20:03:21;23.58;;;12.40;;
61009;SDS011;46897;55.340;86.082;2022-07-29T20:05:51;24.90;;;12.18;;
61009;SDS011;46897;55.340;86.082;2022-07-29T20:08:20;27.65;;;12.07;;
61009;SDS011;46897;55.340;86.082;2022-07-29T20:10:50;26.52;;;11.68;;
61009;SDS011;46897;55.340;86.082;2022-07-29T20:13:21;24.75;;;11.52;;
61009;SDS011;46897;55.340;86.082;2022-07-29T20:15:51;26.17;;;11.98;;
61009;SDS011;46897;55.340;86.082;2022-07-29T20:18:21;25.02;;;11.75;;
61009;SDS011;46897;55.340;86.082;2022-07-29T20:20:50;23.60;;;11.20;;
61009;SDS011;46897;55.340;86.082;2022-07-29T20:23:20;21.08;;;10.93;;
61009;SDS011;46897;55.340;86.082;2022-07-29T20:25:49;24.58;;;11.05;;
61009;SDS011;46897;55.340;86.082;2022-07-29T20:28:21;17.08;;;10.23;;
61009;SDS011;46897;55.340;86.082;2022-07-29T20:30:51;25.88;;;10.20;;
61009;SDS011;46897;55.340;86.082;2022-07-29T20:33:20;19.70;;;9.63;;
61009;SDS011;46897;55.340;86.082;2022-07-29T20:35:50;20.13;;;9.60;;
61009;SDS011;46897;55.340;86.082;2022-07-29T20:38:19;19.83;;;9.48;;
61009;SDS011;46897;55.340;86.082;2022-07-29T20:40:48;22.35;;;10.38;;
61009;SDS011;46897;55.340;86.082;2022-07-29T20:43:21;14.93;;;9.52;;
61009;SDS011;46897;55.340;86.082;2022-07-29T20:45:51;18.80;;;10.18;;
61009;SDS011;46897;55.340;86.082;2022-07-29T20:48:20;17.65;;;10.15;;
61009;SDS011;46897;55.340;86.082;2022-07-29T20:50:50;21.70;;;9.85;;
61009;SDS011;46897;55.340;86.082;2022-07-29T20:53:21;18.58;;;9.65;;
61009;SDS011;46897;55.340;86.082;2022-07-29T20:55:51;16.13;;;10.18;;
61009;SDS011;46897;55.340;86.082;2022-07-29T20:58:22;15.00;;;9.80;;
61009;SDS011;46897;55.340;86.082;2022-07-29T21:00:51;15.07;;;8.57;;
61009;SDS011;46897;55.340;86.082;2022-07-29T21:03:20;16.98;;;9.90;;
61009;SDS011;46897;55.340;86.082;2022-07-29T21:05:50;15.00;;;9.02;;
61009;SDS011;46897;55.340;86.082;2022-07-29T21:08:19;15.68;;;9.82;;
61009;SDS011;46897;55.340;86.082;2022-07-29T21:10:48;16.00;;;9.20;;
61009;SDS011;46897;55.340;86.082;2022-07-29T21:13:18;14.50;;;9.63;;
61009;SDS011;46897;55.340;86.082;2022-07-29T21:15:51;19.65;;;10.73;;
61009;SDS011;46897;55.340;86.082;2022-07-29T21:18:24;23.52;;;10.32;;
61009;SDS011;46897;55.340;86.082;2022-07-29T21:20:58;19.08;;;10.30;;
61009;SDS011;46897;55.340;86.082;2022-07-29T21:23:28;16.30;;;9.70;;
61009;SDS011;46897;55.340;86.082;2022-07-29T21:25:58;19.48;;;9.35;;
61009;SDS011;46897;55.340;86.082;2022-07-29T21:28:27;17.20;;;9.90;;
61009;SDS011;46897;55.340;86.082;2022-07-29T21:31:04;17.48;;;10.02;;
61009;SDS011;46897;55.340;86.082;2022-07-29T21:33:34;18.73;;;9.23;;
61009;SDS011;46897;55.340;86.082;2022-07-29T21:36:04;20.48;;;10.35;;
61009;SDS011;46897;55.340;86.082;2022-07-29T21:38:55;19.98;;;9.90;;
61009;SDS011;46897;55.340;86.082;2022-07-29T21:41:24;17.58;;;9.57;;
61009;SDS011;46897;55.340;86.082;2022-07-29T21:43:54;19.42;;;9.90;;
61009;SDS011;46897;55.340;86.082;2022-07-29T21:46:28;16.77;;;9.95;;